sensor_id;sensor_type;location;lat;lon;timestamp;temperature;humidity
14016;DHT22;7083;48.854;9.158;2024-03-23T00:57:14;6.00;99.90
14016;DHT22;7083;48.854;9.158;2024-03-23T01:02:57;6.30;99.90
14016;DHT22;7083;48.854;9.158;2024-03-23T01:05:26;6.30;99.90
14016;DHT22;7083;48.854;9.158;2024-03-23T01:07:55;8.30;99.90
14016;DHT22;7083;48.854;9.158;2024-03-23T01:10:21;7.00;99.90
14016;DHT22;7083;48.854;9.158;2024-03-23T01:13:03;6.40;99.90
14016;DHT22;7083;48.854;9.158;2024-03-23T01:15:30;6.70;99.90
14016;DHT22;7083;48.854;9.158;2024-03-23T01:17:56;6.80;99.90
14016;DHT22;7083;48.854;9.158;2024-03-23T01:20:22;7.40;99.90
14016;DHT22;7083;48.854;9.158;2024-03-23T01:23:00;7.70;99.90
14016;DHT22;7083;48.854;9.158;2024-03-23T01:25:29;8.80;99.90
14016;DHT22;7083;48.854;9.158;2024-03-23T01:27:55;8.30;99.90
14016;DHT22;7083;48.854;9.158;2024-03-23T01:30:23;8.30;99.90
14016;DHT22;7083;48.854;9.158;2024-03-23T01:32:49;8.50;99.90
14016;DHT22;7083;48.854;9.158;2024-03-23T01:35:15;8.60;99.90
14016;DHT22;7083;48.854;9.158;2024-03-23T01:37:41;9.00;99.90
14016;DHT22;7083;48.854;9.158;2024-03-23T01:40:09;10.40;99.90
14016;DHT22;7083;48.854;9.158;2024-03-23T01:42:34;9.40;99.90
14016;DHT22;7083;48.854;9.158;2024-03-23T01:45:01;9.60;99.90
14016;DHT22;7083;48.854;9.158;2024-03-23T01:47:29;9.80;99.90
14016;DHT22;7083;48.854;9.158;2024-03-23T01:49:55;9.90;99.90
14016;DHT22;7083;48.854;9.158;2024-03-23T01:52:22;10.10;99.90
14016;DHT22;7083;48.854;9.158;2024-03-23T01:54:49;10.30;99.90
14016;DHT22;7083;48.854;9.158;2024-03-23T01:57:15;10.40;99.90
14016;DHT22;7083;48.854;9.158;2024-03-23T01:59:42;10.50;99.90
14016;DHT22;7083;48.854;9.158;2024-03-23T02:02:08;10.50;99.90
14016;DHT22;7083;48.854;9.158;2024-03-23T02:04:36;10.50;99.90
14016;DHT22;7083;48.854;9.158;2024-03-23T02:07:07;11.10;99.90
14016;DHT22;7083;48.854;9.158;2024-03-23T02:09:34;10.60;99.90
14016;DHT22;7083;48.854;9.158;2024-03-23T02:12:02;10.50;99.90
14016;DHT22;7083;48.854;9.158;2024-03-23T02:14:30;10.50;99.90
14016;DHT22;7083;48.854;9.158;2024-03-23T02:16:56;10.70;99.90
14016;DHT22;7083;48.854;9.158;2024-03-23T02:19:23;10.80;99.90
14016;DHT22;7083;48.854;9.158;2024-03-23T02:21:51;10.60;99.90
14016;DHT22;7083;48.854;9.158;2024-03-23T02:24:26;11.50;99.90
14016;DHT22;7083;48.854;9.158;2024-03-23T02:26:54;12.70;99.90
14016;DHT22;7083;48.854;9.158;2024-03-23T02:29:23;11.00;99.90
14016;DHT22;7083;48.854;9.158;2024-03-23T02:31:49;10.70;99.90
14016;DHT22;7083;48.854;9.158;2024-03-23T02:34:16;10.40;99.90
14016;DHT22;7083;48.854;9.158;2024-03-23T02:36:42;10.70;99.90
14016;DHT22;7083;48.854;9.158;2024-03-23T02:39:09;11.00;99.90
14016;DHT22;7083;48.854;9.158;2024-03-23T02:41:39;11.90;99.90
14016;DHT22;7083;48.854;9.158;2024-03-23T02:44:06;11.10;99.90
14016;DHT22;7083;48.854;9.158;2024-03-23T02:46:32;11.00;99.90
14016;DHT22;7083;48.854;9.158;2024-03-23T02:48:59;12.20;99.90
14016;DHT22;7083;48.854;9.158;2024-03-23T02:51:25;10.40;99.90
14016;DHT22;7083;48.854;9.158;2024-03-23T02:53:51;10.20;99.90
14016;DHT22;7083;48.854;9.158;2024-03-23T02:56:17;10.90;99.90
14016;DHT22;7083;48.854;9.158;2024-03-23T02:58:45;11.20;99.90
14016;DHT22;7083;48.854;9.158;2024-03-23T03:01:11;10.40;99.90
14016;DHT22;7083;48.854;9.158;2024-03-23T03:03:38;11.30;99.90
14016;DHT22;7083;48.854;9.158;2024-03-23T03:06:04;10.30;99.90
14016;DHT22;7083;48.854;9.158;2024-03-23T03:08:30;10.30;99.90
14016;DHT22;7083;48.854;9.158;2024-03-23T03:10:56;10.20;99.90
14016;DHT22;7083;48.854;9.158;2024-03-23T03:13:26;10.20;99.90
14016;DHT22;7083;48.854;9.158;2024-03-23T03:15:53;10.20;99.90
14016;DHT22;7083;48.854;9.158;2024-03-23T03:18:22;10.10;99.90
14016;DHT22;7083;48.854;9.158;2024-03-23T03:20:47;10.10;99.90
14016;DHT22;7083;48.854;9.158;2024-03-23T03:23:14;9.90;99.90
14016;DHT22;7083;48.854;9.158;2024-03-23T03:25:43;9.90;99.90
14016;DHT22;7083;48.854;9.158;2024-03-23T03:28:09;9.80;99.90
14016;DHT22;7083;48.854;9.158;2024-03-23T03:30:35;9.80;99.90
14016;DHT22;7083;48.854;9.158;2024-03-23T03:33:04;10.20;99.90
14016;DHT22;7083;48.854;9.158;2024-03-23T03:35:29;9.50;99.90
14016;DHT22;7083;48.854;9.158;2024-03-23T03:37:56;9.40;99.90
14016;DHT22;7083;48.854;9.158;2024-03-23T03:40:22;9.20;99.90
14016;DHT22;7083;48.854;9.158;2024-03-23T03:42:50;9.20;99.90
14016;DHT22;7083;48.854;9.158;2024-03-23T03:45:15;9.20;99.90
14016;DHT22;7083;48.854;9.158;2024-03-23T03:47:42;9.10;99.90
14016;DHT22;7083;48.854;9.158;2024-03-23T03:50:10;9.00;99.90
14016;DHT22;7083;48.854;9.158;2024-03-23T03:52:36;8.90;99.90
14016;DHT22;7083;48.854;9.158;2024-03-23T03:55:30;9.70;99.90
14016;DHT22;7083;48.854;9.158;2024-03-23T03:58:03;8.80;99.90
14016;DHT22;7083;48.854;9.158;2024-03-23T04:00:30;8.70;99.90
14016;DHT22;7083;48.854;9.158;2024-03-23T04:02:56;8.30;99.90
14016;DHT22;7083;48.854;9.158;2024-03-23T04:05:23;8.60;99.90
14016;DHT22;7083;48.854;9.158;2024-03-23T04:07:50;8.60;99.90
14016;DHT22;7083;48.854;9.158;2024-03-23T04:10:18;8.60;99.90
14016;DHT22;7083;48.854;9.158;2024-03-23T04:12:44;8.50;99.90
14016;DHT22;7083;48.854;9.158;2024-03-23T04:15:11;8.70;99.90
14016;DHT22;7083;48.854;9.158;2024-03-23T04:17:43;9.40;99.90
14016;DHT22;7083;48.854;9.158;2024-03-23T04:20:09;9.10;99.90
14016;DHT22;7083;48.854;9.158;2024-03-23T04:22:53;8.70;99.90
14016;DHT22;7083;48.854;9.158;2024-03-23T04:25:19;8.60;99.90
14016;DHT22;7083;48.854;9.158;2024-03-23T04:27:48;8.60;99.90
14016;DHT22;7083;48.854;9.158;2024-03-23T04:30:23;9.00;99.90
14016;DHT22;7083;48.854;9.158;2024-03-23T04:33:02;9.70;99.90
14016;DHT22;7083;48.854;9.158;2024-03-23T04:40:36;9.00;99.90
14016;DHT22;7083;48.854;9.158;2024-03-23T04:43:03;8.90;99.90
14016;DHT22;7083;48.854;9.158;2024-03-23T04:45:29;8.80;99.90
14016;DHT22;7083;48.854;9.158;2024-03-23T04:47:56;8.80;99.90
14016;DHT22;7083;48.854;9.158;2024-03-23T04:50:23;8.80;99.90
14016;DHT22;7083;48.854;9.158;2024-03-23T04:52:50;8.80;99.90
14016;DHT22;7083;48.854;9.158;2024-03-23T04:55:16;8.80;99.90
14016;DHT22;7083;48.854;9.158;2024-03-23T04:57:52;8.80;99.90
14016;DHT22;7083;48.854;9.158;2024-03-23T05:00:19;9.00;99.90
14016;DHT22;7083;48.854;9.158;2024-03-23T05:02:45;9.00;99.90
14016;DHT22;7083;48.854;9.158;2024-03-23T05:05:12;9.80;99.90
14016;DHT22;7083;48.854;9.158;2024-03-23T05:07:38;9.10;99.90
14016;DHT22;7083;48.854;9.158;2024-03-23T05:10:05;9.00;99.90
14016;DHT22;7083;48.854;9.158;2024-03-23T05:12:31;9.10;99.90
14016;DHT22;7083;48.854;9.158;2024-03-23T05:14:59;9.00;99.90
14016;DHT22;7083;48.854;9.158;2024-03-23T05:17:25;9.00;99.90
14016;DHT22;7083;48.854;9.158;2024-03-23T05:19:51;9.00;99.90
14016;DHT22;7083;48.854;9.158;2024-03-23T05:22:17;8.90;99.90
14016;DHT22;7083;48.854;9.158;2024-03-23T05:24:45;8.90;99.90
14016;DHT22;7083;48.854;9.158;2024-03-23T05:27:10;8.90;99.90
14016;DHT22;7083;48.854;9.158;2024-03-23T05:29:37;8.90;99.90
14016;DHT22;7083;48.854;9.158;2024-03-23T05:32:05;8.80;99.90
14016;DHT22;7083;48.854;9.158;2024-03-23T05:34:31;8.80;99.90
14016;DHT22;7083;48.854;9.158;2024-03-23T05:36:57;8.80;99.90
14016;DHT22;7083;48.854;9.158;2024-03-23T05:39:24;8.80;99.90
14016;DHT22;7083;48.854;9.158;2024-03-23T05:41:50;8.80;99.90
14016;DHT22;7083;48.854;9.158;2024-03-23T05:44:16;8.80;99.90
14016;DHT22;7083;48.854;9.158;2024-03-23T05:46:42;8.80;99.90
14016;DHT22;7083;48.854;9.158;2024-03-23T05:49:15;8.70;99.90
14016;DHT22;7083;48.854;9.158;2024-03-23T05:51:42;8.50;99.90
14016;DHT22;7083;48.854;9.158;2024-03-23T05:54:09;8.40;99.90
14016;DHT22;7083;48.854;9.158;2024-03-23T05:56:34;8.30;99.90
14016;DHT22;7083;48.854;9.158;2024-03-23T05:59:01;8.20;99.90
14016;DHT22;7083;48.854;9.158;2024-03-23T06:01:28;8.10;99.90
14016;DHT22;7083;48.854;9.158;2024-03-23T06:03:58;8.10;99.90
14016;DHT22;7083;48.854;9.158;2024-03-23T06:06:25;8.00;99.90
14016;DHT22;7083;48.854;9.158;2024-03-23T06:08:51;8.00;99.90
14016;DHT22;7083;48.854;9.158;2024-03-23T06:11:17;8.00;99.90
14016;DHT22;7083;48.854;9.158;2024-03-23T06:13:44;7.90;99.90
14016;DHT22;7083;48.854;9.158;2024-03-23T06:16:10;7.90;99.90
14016;DHT22;7083;48.854;9.158;2024-03-23T06:18:36;7.90;99.90
14016;DHT22;7083;48.854;9.158;2024-03-23T06:21:02;7.90;99.90
14016;DHT22;7083;48.854;9.158;2024-03-23T06:23:31;7.90;99.90
14016;DHT22;7083;48.854;9.158;2024-03-23T06:25:56;7.90;99.90
14016;DHT22;7083;48.854;9.158;2024-03-23T06:28:23;7.90;99.90
14016;DHT22;7083;48.854;9.158;2024-03-23T06:30:49;7.80;99.90
14016;DHT22;7083;48.854;9.158;2024-03-23T06:33:16;7.80;99.90
14016;DHT22;7083;48.854;9.158;2024-03-23T06:35:41;7.70;99.90
14016;DHT22;7083;48.854;9.158;2024-03-23T06:38:08;8.50;99.90
14016;DHT22;7083;48.854;9.158;2024-03-23T06:40:37;7.70;99.90
14016;DHT22;7083;48.854;9.158;2024-03-23T06:43:04;9.60;99.90
14016;DHT22;7083;48.854;9.158;2024-03-23T06:45:31;7.50;99.90
14016;DHT22;7083;48.854;9.158;2024-03-23T06:47:57;9.60;99.90
14016;DHT22;7083;48.854;9.158;2024-03-23T06:50:24;7.50;99.90
14016;DHT22;7083;48.854;9.158;2024-03-23T06:53:05;7.40;99.90
14016;DHT22;7083;48.854;9.158;2024-03-23T06:55:32;7.40;99.90
14016;DHT22;7083;48.854;9.158;2024-03-23T06:57:59;7.50;99.90
14016;DHT22;7083;48.854;9.158;2024-03-23T07:00:26;7.40;99.90
14016;DHT22;7083;48.854;9.158;2024-03-23T07:02:59;7.40;99.90
14016;DHT22;7083;48.854;9.158;2024-03-23T07:05:25;9.10;99.90
14016;DHT22;7083;48.854;9.158;2024-03-23T07:07:51;7.20;99.90
14016;DHT22;7083;48.854;9.158;2024-03-23T07:10:18;7.30;99.90
14016;DHT22;7083;48.854;9.158;2024-03-23T07:12:44;7.40;99.90
14016;DHT22;7083;48.854;9.158;2024-03-23T07:15:12;8.90;99.90
14016;DHT22;7083;48.854;9.158;2024-03-23T07:17:38;7.40;99.90
14016;DHT22;7083;48.854;9.158;2024-03-23T07:20:05;7.50;99.90
14016;DHT22;7083;48.854;9.158;2024-03-23T07:22:35;7.60;99.90
14016;DHT22;7083;48.854;9.158;2024-03-23T07:25:43;7.60;99.90
14016;DHT22;7083;48.854;9.158;2024-03-23T07:27:54;7.50;99.90
14016;DHT22;7083;48.854;9.158;2024-03-23T07:30:31;8.20;99.90
14016;DHT22;7083;48.854;9.158;2024-03-23T07:33:01;7.60;99.90
14016;DHT22;7083;48.854;9.158;2024-03-23T07:35:45;7.50;99.90
14016;DHT22;7083;48.854;9.158;2024-03-23T07:38:11;7.20;99.90
14016;DHT22;7083;48.854;9.158;2024-03-23T07:40:37;7.30;99.90
14016;DHT22;7083;48.854;9.158;2024-03-23T07:43:06;7.30;99.90
14016;DHT22;7083;48.854;9.158;2024-03-23T07:45:34;7.50;99.90
14016;DHT22;7083;48.854;9.158;2024-03-23T07:48:00;7.10;99.90
14016;DHT22;7083;48.854;9.158;2024-03-23T07:50:27;7.20;99.90
14016;DHT22;7083;48.854;9.158;2024-03-23T07:52:53;7.20;99.90
14016;DHT22;7083;48.854;9.158;2024-03-23T07:55:19;7.20;99.90
14016;DHT22;7083;48.854;9.158;2024-03-23T07:57:46;7.10;99.90
14016;DHT22;7083;48.854;9.158;2024-03-23T08:00:16;6.90;99.90
14016;DHT22;7083;48.854;9.158;2024-03-23T08:02:51;7.00;99.90
14016;DHT22;7083;48.854;9.158;2024-03-23T08:05:18;9.60;99.90
14016;DHT22;7083;48.854;9.158;2024-03-23T08:07:43;8.70;99.90
14016;DHT22;7083;48.854;9.158;2024-03-23T08:10:10;7.00;99.90
14016;DHT22;7083;48.854;9.158;2024-03-23T08:12:38;7.30;99.90
14016;DHT22;7083;48.854;9.158;2024-03-23T08:15:05;7.40;99.90
14016;DHT22;7083;48.854;9.158;2024-03-23T08:17:31;7.30;99.90
14016;DHT22;7083;48.854;9.158;2024-03-23T08:19:59;8.90;99.90
14016;DHT22;7083;48.854;9.158;2024-03-23T08:22:25;7.20;99.90
14016;DHT22;7083;48.854;9.158;2024-03-23T08:24:51;7.20;99.90
14016;DHT22;7083;48.854;9.158;2024-03-23T08:27:17;7.20;99.90
14016;DHT22;7083;48.854;9.158;2024-03-23T08:29:47;7.10;99.90
14016;DHT22;7083;48.854;9.158;2024-03-23T08:32:30;7.10;99.90
14016;DHT22;7083;48.854;9.158;2024-03-23T08:35:05;7.10;99.90
14016;DHT22;7083;48.854;9.158;2024-03-23T08:37:34;7.00;99.90
14016;DHT22;7083;48.854;9.158;2024-03-23T08:40:07;6.70;99.90
14016;DHT22;7083;48.854;9.158;2024-03-23T08:42:51;7.00;99.90
14016;DHT22;7083;48.854;9.158;2024-03-23T08:45:28;8.60;99.90
14016;DHT22;7083;48.854;9.158;2024-03-23T08:47:54;6.90;99.90
14016;DHT22;7083;48.854;9.158;2024-03-23T08:50:24;6.80;99.90
14016;DHT22;7083;48.854;9.158;2024-03-23T08:52:51;8.10;99.90
14016;DHT22;7083;48.854;9.158;2024-03-23T08:55:19;6.80;99.90
14016;DHT22;7083;48.854;9.158;2024-03-23T08:57:45;6.70;99.90
14016;DHT22;7083;48.854;9.158;2024-03-23T09:03:05;6.90;99.90
14016;DHT22;7083;48.854;9.158;2024-03-23T09:05:48;6.50;99.90
14016;DHT22;7083;48.854;9.158;2024-03-23T09:08:17;6.60;99.90
14016;DHT22;7083;48.854;9.158;2024-03-23T09:14:02;7.90;99.90
14016;DHT22;7083;48.854;9.158;2024-03-23T09:16:29;7.00;99.90
14016;DHT22;7083;48.854;9.158;2024-03-23T09:18:56;7.00;99.90
14016;DHT22;7083;48.854;9.158;2024-03-23T09:21:24;6.90;99.90
14016;DHT22;7083;48.854;9.158;2024-03-23T09:23:53;7.00;99.90
14016;DHT22;7083;48.854;9.158;2024-03-23T09:26:20;9.30;99.90
14016;DHT22;7083;48.854;9.158;2024-03-23T09:28:54;7.00;99.90
14016;DHT22;7083;48.854;9.158;2024-03-23T09:31:22;6.90;99.90
14016;DHT22;7083;48.854;9.158;2024-03-23T09:33:51;7.90;99.90
14016;DHT22;7083;48.854;9.158;2024-03-23T09:36:38;7.40;99.90
14016;DHT22;7083;48.854;9.158;2024-03-23T09:39:09;6.90;99.90
14016;DHT22;7083;48.854;9.158;2024-03-23T09:41:39;6.50;99.90
14016;DHT22;7083;48.854;9.158;2024-03-23T09:44:16;6.40;99.90
14016;DHT22;7083;48.854;9.158;2024-03-23T09:46:45;6.70;99.90
14016;DHT22;7083;48.854;9.158;2024-03-23T09:49:11;6.40;99.90
14016;DHT22;7083;48.854;9.158;2024-03-23T09:51:51;6.40;99.90
14016;DHT22;7083;48.854;9.158;2024-03-23T09:54:17;6.30;99.90
14016;DHT22;7083;48.854;9.158;2024-03-23T09:56:44;7.80;99.90
14016;DHT22;7083;48.854;9.158;2024-03-23T09:59:46;6.40;99.90
14016;DHT22;7083;48.854;9.158;2024-03-23T10:02:07;6.70;99.90
14016;DHT22;7083;48.854;9.158;2024-03-23T10:04:54;6.80;99.90
14016;DHT22;7083;48.854;9.158;2024-03-23T10:07:28;6.80;99.90
14016;DHT22;7083;48.854;9.158;2024-03-23T10:09:54;8.20;99.90
14016;DHT22;7083;48.854;9.158;2024-03-23T10:12:22;8.70;99.90
14016;DHT22;7083;48.854;9.158;2024-03-23T10:14:59;7.50;99.90
14016;DHT22;7083;48.854;9.158;2024-03-23T10:17:37;7.40;99.90
14016;DHT22;7083;48.854;9.158;2024-03-23T10:20:10;7.90;99.90
14016;DHT22;7083;48.854;9.158;2024-03-23T10:22:41;7.80;99.90
14016;DHT22;7083;48.854;9.158;2024-03-23T10:25:11;7.50;99.90
14016;DHT22;7083;48.854;9.158;2024-03-23T10:27:39;7.40;99.90
14016;DHT22;7083;48.854;9.158;2024-03-23T10:30:09;7.20;99.90
14016;DHT22;7083;48.854;9.158;2024-03-23T10:32:38;7.40;99.90
14016;DHT22;7083;48.854;9.158;2024-03-23T10:35:22;7.30;99.90
14016;DHT22;7083;48.854;9.158;2024-03-23T10:37:54;7.20;99.90
14016;DHT22;7083;48.854;9.158;2024-03-23T10:40:31;7.30;99.90
14016;DHT22;7083;48.854;9.158;2024-03-23T10:42:58;7.10;99.90
14016;DHT22;7083;48.854;9.158;2024-03-23T10:45:35;6.80;99.90
14016;DHT22;7083;48.854;9.158;2024-03-23T10:48:07;7.10;99.90
14016;DHT22;7083;48.854;9.158;2024-03-23T10:50:33;6.70;99.90
14016;DHT22;7083;48.854;9.158;2024-03-23T10:53:02;5.90;99.90
14016;DHT22;7083;48.854;9.158;2024-03-23T10:55:28;6.00;99.90
14016;DHT22;7083;48.854;9.158;2024-03-23T10:57:57;5.10;99.90
14016;DHT22;7083;48.854;9.158;2024-03-23T11:00:24;4.90;99.90
14016;DHT22;7083;48.854;9.158;2024-03-23T11:02:51;4.90;99.90
14016;DHT22;7083;48.854;9.158;2024-03-23T11:05:30;7.00;99.90
14016;DHT22;7083;48.854;9.158;2024-03-23T11:07:57;4.70;99.90
14016;DHT22;7083;48.854;9.158;2024-03-23T11:10:29;4.60;99.90
14016;DHT22;7083;48.854;9.158;2024-03-23T11:12:56;4.60;99.90
14016;DHT22;7083;48.854;9.158;2024-03-23T11:15:22;4.90;99.90
14016;DHT22;7083;48.854;9.158;2024-03-23T11:18:03;5.00;99.90
14016;DHT22;7083;48.854;9.158;2024-03-23T11:20:31;2.80;99.90
14016;DHT22;7083;48.854;9.158;2024-03-23T11:22:59;5.40;99.90
14016;DHT22;7083;48.854;9.158;2024-03-23T11:25:26;5.70;99.90
14016;DHT22;7083;48.854;9.158;2024-03-23T11:27:55;5.90;99.90
14016;DHT22;7083;48.854;9.158;2024-03-23T11:30:23;6.10;99.90
14016;DHT22;7083;48.854;9.158;2024-03-23T11:32:51;6.40;99.90
14016;DHT22;7083;48.854;9.158;2024-03-23T11:35:30;6.60;99.90
14016;DHT22;7083;48.854;9.158;2024-03-23T11:38:05;6.80;99.90
14016;DHT22;7083;48.854;9.158;2024-03-23T11:40:31;7.00;99.90
14016;DHT22;7083;48.854;9.158;2024-03-23T11:43:01;7.10;99.90
14016;DHT22;7083;48.854;9.158;2024-03-23T12:19:24;6.60;99.90
14016;DHT22;7083;48.854;9.158;2024-03-23T12:21:50;6.50;99.90
14016;DHT22;7083;48.854;9.158;2024-03-23T12:24:16;6.60;99.90
14016;DHT22;7083;48.854;9.158;2024-03-23T12:26:43;6.50;99.90
14016;DHT22;7083;48.854;9.158;2024-03-23T12:29:09;6.50;99.90
14016;DHT22;7083;48.854;9.158;2024-03-23T12:31:36;6.50;99.90
14016;DHT22;7083;48.854;9.158;2024-03-23T12:34:01;6.70;99.90
14016;DHT22;7083;48.854;9.158;2024-03-23T12:36:30;7.10;99.90
14016;DHT22;7083;48.854;9.158;2024-03-23T12:38:55;6.80;99.90
14016;DHT22;7083;48.854;9.158;2024-03-23T12:41:22;6.80;99.90
14016;DHT22;7083;48.854;9.158;2024-03-23T12:43:50;6.80;99.90
14016;DHT22;7083;48.854;9.158;2024-03-23T12:46:17;6.70;99.90
14016;DHT22;7083;48.854;9.158;2024-03-23T12:48:44;6.50;99.90
14016;DHT22;7083;48.854;9.158;2024-03-23T12:51:11;6.50;99.90
14016;DHT22;7083;48.854;9.158;2024-03-23T12:53:38;6.40;99.90
14016;DHT22;7083;48.854;9.158;2024-03-23T12:56:05;6.30;99.90
14016;DHT22;7083;48.854;9.158;2024-03-23T12:58:30;6.40;99.90
14016;DHT22;7083;48.854;9.158;2024-03-23T13:00:58;6.70;99.90
14016;DHT22;7083;48.854;9.158;2024-03-23T13:03:24;7.10;99.90
14016;DHT22;7083;48.854;9.158;2024-03-23T13:05:52;7.40;99.90
14016;DHT22;7083;48.854;9.158;2024-03-23T13:08:17;7.70;99.90
14016;DHT22;7083;48.854;9.158;2024-03-23T13:10:46;8.00;99.90
14016;DHT22;7083;48.854;9.158;2024-03-23T13:13:12;8.30;99.90
14016;DHT22;7083;48.854;9.158;2024-03-23T13:15:39;8.20;99.90
14016;DHT22;7083;48.854;9.158;2024-03-23T13:18:05;8.00;99.90
14016;DHT22;7083;48.854;9.158;2024-03-23T13:20:31;7.90;99.90
14016;DHT22;7083;48.854;9.158;2024-03-23T13:22:59;7.60;99.90
14016;DHT22;7083;48.854;9.158;2024-03-23T13:25:24;7.40;99.90
14016;DHT22;7083;48.854;9.158;2024-03-23T13:27:52;7.30;99.90
14016;DHT22;7083;48.854;9.158;2024-03-23T13:30:18;7.40;99.90
14016;DHT22;7083;48.854;9.158;2024-03-23T13:32:45;7.20;99.90
14016;DHT22;7083;48.854;9.158;2024-03-23T13:35:10;7.20;99.90
14016;DHT22;7083;48.854;9.158;2024-03-23T13:37:37;7.30;99.90
14016;DHT22;7083;48.854;9.158;2024-03-23T13:40:03;7.40;99.90
14016;DHT22;7083;48.854;9.158;2024-03-23T13:42:30;7.80;99.90
14016;DHT22;7083;48.854;9.158;2024-03-23T13:44:57;8.40;99.90
14016;DHT22;7083;48.854;9.158;2024-03-23T13:47:24;9.00;99.90
14016;DHT22;7083;48.854;9.158;2024-03-23T13:49:49;10.20;99.90
14016;DHT22;7083;48.854;9.158;2024-03-23T13:52:16;10.20;99.90
14016;DHT22;7083;48.854;9.158;2024-03-23T13:54:44;9.20;99.90
14016;DHT22;7083;48.854;9.158;2024-03-23T13:57:11;8.00;99.90
14016;DHT22;7083;48.854;9.158;2024-03-23T13:59:37;6.80;99.90
14016;DHT22;7083;48.854;9.158;2024-03-23T14:02:05;6.10;99.90
14016;DHT22;7083;48.854;9.158;2024-03-23T14:04:31;5.60;99.90
14016;DHT22;7083;48.854;9.158;2024-03-23T14:06:58;5.20;99.90
14016;DHT22;7083;48.854;9.158;2024-03-23T14:09:24;5.00;99.90
14016;DHT22;7083;48.854;9.158;2024-03-23T14:11:51;4.90;99.90
14016;DHT22;7083;48.854;9.158;2024-03-23T14:14:17;4.70;99.90
14016;DHT22;7083;48.854;9.158;2024-03-23T14:16:44;4.50;99.90
14016;DHT22;7083;48.854;9.158;2024-03-23T14:19:11;4.50;99.90
14016;DHT22;7083;48.854;9.158;2024-03-23T14:21:38;4.40;99.90
14016;DHT22;7083;48.854;9.158;2024-03-23T14:24:04;4.40;99.90
14016;DHT22;7083;48.854;9.158;2024-03-23T14:26:31;4.40;99.90
14016;DHT22;7083;48.854;9.158;2024-03-23T14:28:57;4.40;99.90
14016;DHT22;7083;48.854;9.158;2024-03-23T14:31:24;4.50;99.90
14016;DHT22;7083;48.854;9.158;2024-03-23T14:33:50;5.70;99.90
14016;DHT22;7083;48.854;9.158;2024-03-23T14:36:18;8.00;99.90
14016;DHT22;7083;48.854;9.158;2024-03-23T14:38:47;9.90;99.90
14016;DHT22;7083;48.854;9.158;2024-03-23T14:41:14;11.60;99.90
14016;DHT22;7083;48.854;9.158;2024-03-23T14:43:40;13.60;99.90
14016;DHT22;7083;48.854;9.158;2024-03-23T14:46:09;13.60;99.90
14016;DHT22;7083;48.854;9.158;2024-03-23T14:48:36;14.50;99.90
14016;DHT22;7083;48.854;9.158;2024-03-23T14:51:03;15.00;99.90
14016;DHT22;7083;48.854;9.158;2024-03-23T14:53:32;15.30;99.90
14016;DHT22;7083;48.854;9.158;2024-03-23T14:55:59;14.70;99.90
14016;DHT22;7083;48.854;9.158;2024-03-23T14:58:26;14.90;99.90
14016;DHT22;7083;48.854;9.158;2024-03-23T15:00:57;12.20;99.90
14016;DHT22;7083;48.854;9.158;2024-03-23T15:03:25;10.80;99.90
14016;DHT22;7083;48.854;9.158;2024-03-23T15:05:53;9.00;99.90
14016;DHT22;7083;48.854;9.158;2024-03-23T15:08:19;8.20;99.90
14016;DHT22;7083;48.854;9.158;2024-03-23T15:10:47;8.80;99.90
14016;DHT22;7083;48.854;9.158;2024-03-23T15:13:13;7.50;99.90
14016;DHT22;7083;48.854;9.158;2024-03-23T15:15:41;7.40;99.90
14016;DHT22;7083;48.854;9.158;2024-03-23T15:18:09;7.80;99.90
14016;DHT22;7083;48.854;9.158;2024-03-23T15:20:38;9.20;99.90
14016;DHT22;7083;48.854;9.158;2024-03-23T15:23:04;8.90;99.90
14016;DHT22;7083;48.854;9.158;2024-03-23T15:25:36;10.10;99.90
14016;DHT22;7083;48.854;9.158;2024-03-23T15:28:03;11.50;99.90
14016;DHT22;7083;48.854;9.158;2024-03-23T15:30:30;12.50;99.90
14016;DHT22;7083;48.854;9.158;2024-03-23T15:32:56;13.50;99.90
14016;DHT22;7083;48.854;9.158;2024-03-23T15:35:23;14.20;99.90
14016;DHT22;7083;48.854;9.158;2024-03-23T15:37:49;14.70;99.90
14016;DHT22;7083;48.854;9.158;2024-03-23T15:40:16;15.40;99.90
14016;DHT22;7083;48.854;9.158;2024-03-23T15:42:42;15.90;99.90
14016;DHT22;7083;48.854;9.158;2024-03-23T15:45:10;16.40;99.90
14016;DHT22;7083;48.854;9.158;2024-03-23T15:47:36;16.50;99.90
14016;DHT22;7083;48.854;9.158;2024-03-23T15:50:04;16.50;99.90
14016;DHT22;7083;48.854;9.158;2024-03-23T15:52:34;16.40;99.90
14016;DHT22;7083;48.854;9.158;2024-03-23T15:55:01;15.30;94.20
14016;DHT22;7083;48.854;9.158;2024-03-23T15:57:29;14.00;99.20
14016;DHT22;7083;48.854;9.158;2024-03-23T15:59:55;14.10;99.90
14016;DHT22;7083;48.854;9.158;2024-03-23T16:02:22;15.10;99.90
14016;DHT22;7083;48.854;9.158;2024-03-23T16:04:49;15.60;97.30
14016;DHT22;7083;48.854;9.158;2024-03-23T16:07:15;15.50;96.90
14016;DHT22;7083;48.854;9.158;2024-03-23T16:09:41;14.90;93.60
14016;DHT22;7083;48.854;9.158;2024-03-23T16:12:07;14.00;96.90
14016;DHT22;7083;48.854;9.158;2024-03-23T16:14:34;12.70;96.50
14016;DHT22;7083;48.854;9.158;2024-03-23T16:16:59;11.30;94.90
14016;DHT22;7083;48.854;9.158;2024-03-23T16:19:27;9.90;99.90
14016;DHT22;7083;48.854;9.158;2024-03-23T16:21:53;9.00;99.90
14016;DHT22;7083;48.854;9.158;2024-03-23T16:24:20;8.30;99.90
14016;DHT22;7083;48.854;9.158;2024-03-23T16:26:46;7.70;99.90
14016;DHT22;7083;48.854;9.158;2024-03-23T16:29:14;7.30;99.90
14016;DHT22;7083;48.854;9.158;2024-03-23T16:31:40;6.90;99.90
14016;DHT22;7083;48.854;9.158;2024-03-23T16:34:07;6.60;99.90
14016;DHT22;7083;48.854;9.158;2024-03-23T16:36:34;6.40;99.90
14016;DHT22;7083;48.854;9.158;2024-03-23T16:39:01;6.10;99.90
14016;DHT22;7083;48.854;9.158;2024-03-23T16:41:27;5.90;99.90
14016;DHT22;7083;48.854;9.158;2024-03-23T16:43:53;5.80;99.90
14016;DHT22;7083;48.854;9.158;2024-03-23T16:46:19;5.50;99.90
14016;DHT22;7083;48.854;9.158;2024-03-23T16:48:46;5.20;99.90
14016;DHT22;7083;48.854;9.158;2024-03-23T16:51:12;4.90;99.90
14016;DHT22;7083;48.854;9.158;2024-03-23T16:53:42;4.60;99.90
14016;DHT22;7083;48.854;9.158;2024-03-23T17:53:06;3.90;99.90
14016;DHT22;7083;48.854;9.158;2024-03-23T17:55:32;3.70;99.90
14016;DHT22;7083;48.854;9.158;2024-03-23T17:57:58;3.40;99.90
14016;DHT22;7083;48.854;9.158;2024-03-23T18:00:26;3.10;99.90
14016;DHT22;7083;48.854;9.158;2024-03-23T18:02:52;2.90;99.90
14016;DHT22;7083;48.854;9.158;2024-03-23T18:05:19;2.60;99.90
14016;DHT22;7083;48.854;9.158;2024-03-23T18:07:46;2.40;99.90
14016;DHT22;7083;48.854;9.158;2024-03-23T18:10:14;2.40;99.90
14016;DHT22;7083;48.854;9.158;2024-03-23T18:12:40;2.40;99.90
14016;DHT22;7083;48.854;9.158;2024-03-23T18:15:07;2.40;99.90
14016;DHT22;7083;48.854;9.158;2024-03-23T18:17:33;2.50;99.90
14016;DHT22;7083;48.854;9.158;2024-03-23T18:20:00;2.50;99.90
14016;DHT22;7083;48.854;9.158;2024-03-23T18:22:25;2.60;99.90
14016;DHT22;7083;48.854;9.158;2024-03-23T18:24:52;2.70;99.90
14016;DHT22;7083;48.854;9.158;2024-03-23T18:27:19;2.80;99.90
14016;DHT22;7083;48.854;9.158;2024-03-23T18:29:46;2.80;99.90
14016;DHT22;7083;48.854;9.158;2024-03-23T18:32:12;2.80;99.90
14016;DHT22;7083;48.854;9.158;2024-03-23T18:34:39;2.80;99.90
14016;DHT22;7083;48.854;9.158;2024-03-23T18:37:05;2.80;99.90
14016;DHT22;7083;48.854;9.158;2024-03-23T18:39:32;2.80;99.90
14016;DHT22;7083;48.854;9.158;2024-03-23T18:41:58;2.90;99.90
